KHPN/HPN METAR and TAF weather

Enter ICAO airport designator
Station Type Date Time Source
KHPN METAR 2020/03/31 08:56 UTC NOAA

KHPN 310856Z 06005KT 10SM BKN012 OVC026 04/02 A2998 RMK AO2 DZE24 SLP156 P0000 60001 T00390022 53000


Station Type Date Time Source
KHPN Decoded METAR 2020/03/31 08:56 UTC NOAA

WHITE PLAINS WESTCHESTER, NY, United States (KHPN) 41-04N 073-42W 121M
Mar 31, 2020 - 04:56 AM EDT / 2020.03.31 0856 UTC
Wind: from the ENE (060 degrees) at 6 MPH (5 KT):0
Visibility: 10 mile(s):0
Sky conditions: overcast
Precipitation last hour: A trace
Temperature: 39.0 F (3.9 C)
Dew Point: 36.0 F (2.2 C)
Relative Humidity: 88%
Pressure (altimeter): 29.98 in. Hg (1015 hPa)
Pressure tendency: 0.00 inches (0.0 hPa) higher than three hours ago
ob: KHPN 310856Z 06005KT 10SM BKN012 OVC026 04/02 A2998 RMK AO2 DZE24 SLP156 P0000 60001 T00390022 53000
cycle: 9

Station Type Date Time Source
KHPN TAF 2020/03/31 09:42 UTC NOAA

TAF
AMD KHPN 310840Z 3109/0106 06006KT P6SM SCT015 OVC025
FM311500 06004KT P6SM BKN025
FM312000 07005KT P6SM BKN030
FM010200 VRB03KT P6SM FEW020 BKN035
AMD NOT SKED

Example: see airport list